Time;durP1;ratioP1;P1;durP2;ratioP2;P2;SDS_P1;SDS_P2;PMS_P1;PMS_P2;Temp;Humidity;BMP_temperature;BMP_pressure;BME280_temperature;BME280_humidity;BME280_pressure;Samples;Min_cycle;Max_cycle;Signal;HPM_P1;HPM_P2
2023/01/07 00:01:01;;;;;;;6.32;5.53;;;10.10;83.40;;;;;;4979933;28;20125;-60
2023/01/07 00:03:28;;;;;;;6.80;5.80;;;10.10;83.50;;;;;;4980922;28;20165;-63
2023/01/07 00:06:06;;;;;;;6.35;5.75;;;10.10;83.60;;;;;;4975863;28;20513;-61
2023/01/07 00:08:33;;;;;;;6.10;5.50;;;10.10;83.80;;;;;;4986645;28;20042;-62
2023/01/07 00:11:11;;;;;;;5.63;5.03;;;10.10;83.80;;;;;;4978745;28;20494;-62
2023/01/07 00:13:37;;;;;;;5.55;5.03;;;10.10;83.80;;;;;;4983207;28;20069;-62
2023/01/07 00:16:09;;;;;;;6.45;5.63;;;10.10;83.70;;;;;;4987077;28;20418;-63
2023/01/07 00:18:35;;;;;;;6.35;5.72;;;10.10;83.80;;;;;;4986039;28;20562;-62
2023/01/07 00:21:03;;;;;;;8.13;5.80;;;10.10;83.80;;;;;;4988449;28;20034;-64
2023/01/07 00:23:30;;;;;;;6.55;5.63;;;10.10;83.80;;;;;;4986556;28;20478;-62
2023/01/07 00:26:10;;;;;;;7.10;6.40;;;10.10;83.80;;;;;;4987521;28;20062;-63
2023/01/07 00:28:41;;;;;;;6.53;5.93;;;10.10;83.80;;;;;;4986755;28;20085;-63
2023/01/07 00:31:10;;;;;;;6.38;5.65;;;10.10;83.80;;;;;;4985007;28;20042;-63
2023/01/07 00:33:42;;;;;;;6.70;6.00;;;10.10;83.70;;;;;;4987468;28;20045;-62
2023/01/07 00:36:09;;;;;;;7.10;6.07;;;10.10;83.80;;;;;;4986016;28;20054;-62
2023/01/07 00:38:35;;;;;;;6.60;5.93;;;10.10;83.80;;;;;;4985838;28;20038;-62
2023/01/07 00:41:02;;;;;;;6.85;6.15;;;10.10;83.80;;;;;;4987086;28;20034;-61
2023/01/07 00:43:28;;;;;;;6.85;5.95;;;10.10;83.80;;;;;;4986155;28;20042;-63
2023/01/07 00:45:53;;;;;;;6.82;6.13;;;10.10;83.80;;;;;;4984884;28;20486;-62
2023/01/07 00:48:20;;;;;;;6.28;5.68;;;10.10;83.80;;;;;;4985537;28;20038;-62
2023/01/07 00:50:47;;;;;;;7.93;6.43;;;10.10;83.90;;;;;;4984128;28;20403;-63
2023/01/07 00:53:13;;;;;;;6.60;5.97;;;10.10;84.00;;;;;;4983147;28;20518;-62
2023/01/07 00:55:38;;;;;;;7.07;6.32;;;10.10;84.00;;;;;;4982023;28;20100;-63
2023/01/07 00:58:04;;;;;;;7.47;6.05;;;10.10;84.10;;;;;;4983278;28;20035;-63
2023/01/07 01:00:30;;;;;;;7.88;6.40;;;10.10;84.10;;;;;;4984178;28;20030;-63
2023/01/07 01:02:58;;;;;;;7.47;5.95;;;10.10;84.00;;;;;;4985915;28;20240;-62
2023/01/07 01:05:24;;;;;;;6.50;5.90;;;10.10;84.00;;;;;;4984682;28;20578;-63
2023/01/07 01:07:50;;;;;;;7.15;6.45;;;10.10;84.10;;;;;;4978231;28;20089;-62
2023/01/07 01:10:18;;;;;;;6.80;6.10;;;10.10;84.10;;;;;;4974267;28;20526;-61
2023/01/07 01:12:44;;;;;;;7.10;6.40;;;10.10;84.10;;;;;;4978806;28;20034;-61
2023/01/07 01:15:12;;;;;;;7.07;5.93;;;10.20;84.10;;;;;;4978527;28;20035;-63
2023/01/07 01:17:38;;;;;;;6.53;5.80;;;10.20;84.10;;;;;;4974664;28;20520;-62
2023/01/07 01:20:05;;;;;;;6.25;5.65;;;10.20;84.10;;;;;;4976606;28;20126;-62
2023/01/07 01:22:31;;;;;;;6.50;5.90;;;10.20;84.10;;;;;;4977461;28;20064;-62
2023/01/07 01:24:56;;;;;;;7.43;6.22;;;10.20;84.10;;;;;;4974836;28;20113;-62
2023/01/07 01:27:22;;;;;;;7.03;6.10;;;10.30;84.10;;;;;;4974927;28;20411;-63
2023/01/07 01:29:47;;;;;;;7.07;6.32;;;10.30;84.10;;;;;;4973876;28;20069;-62
2023/01/07 01:32:13;;;;;;;8.25;6.65;;;10.30;83.90;;;;;;4973259;28;20093;-61
2023/01/07 01:34:39;;;;;;;6.90;6.20;;;10.30;83.90;;;;;;4971709;28;20042;-61
2023/01/07 01:37:04;;;;;;;7.65;6.22;;;10.40;83.80;;;;;;4975366;28;20042;-60
2023/01/07 01:39:30;;;;;;;7.10;6.40;;;10.40;83.80;;;;;;4983115;28;20585;-63
2023/01/07 01:41:56;;;;;;;7.85;6.55;;;10.40;83.70;;;;;;4979161;28;20035;-60
2023/01/07 01:44:45;;;;;;;8.13;6.82;;;10.40;83.60;;;;;;4976979;28;20030;-61
2023/01/07 01:47:31;;;;;;;8.18;6.35;;;10.40;83.50;;;;;;4954634;28;20038;-61
2023/01/07 01:50:03;;;;;;;6.90;6.20;;;10.40;83.50;;;;;;4976018;28;20038;-61
2023/01/07 01:52:41;;;;;;;7.15;6.45;;;10.40;83.40;;;;;;4977495;28;20042;-61
2023/01/07 01:55:07;;;;;;;6.60;5.90;;;10.40;83.40;;;;;;4975888;28;20197;-60
2023/01/07 01:57:35;;;;;;;6.90;6.22;;;10.40;83.40;;;;;;4976520;28;20035;-60
2023/01/07 02:00:02;;;;;;;6.95;6.13;;;10.40;83.50;;;;;;4976694;28;20550;-60
2023/01/07 02:02:33;;;;;;;7.00;6.30;;;10.40;83.40;;;;;;4975819;28;20065;-60
2023/01/07 02:04:59;;;;;;;8.07;6.72;;;10.40;83.40;;;;;;4972501;28;20121;-62
2023/01/07 02:07:25;;;;;;;7.18;6.47;;;10.40;83.40;;;;;;4979528;28;20520;-61
2023/01/07 02:09:59;;;;;;;7.65;6.50;;;10.40;83.40;;;;;;4978875;28;20042;-62
2023/01/07 02:12:44;;;;;;;7.40;6.60;;;10.40;83.40;;;;;;4977857;28;20042;-61
2023/01/07 02:15:14;;;;;;;7.43;6.43;;;10.40;83.40;;;;;;4980046;28;20038;-62
2023/01/07 02:18:01;;;;;;;7.38;6.05;;;10.40;83.40;;;;;;4972095;28;20494;-64
2023/01/07 02:20:45;;;;;;;6.88;6.20;;;10.40;83.60;;;;;;4971819;28;20081;-64
2023/01/07 02:23:50;;;;;;;8.10;5.80;;;10.40;83.50;;;;;;4977547;28;20281;-64
2023/01/07 02:26:43;;;;;;;6.65;5.88;;;10.40;83.60;;;;;;4974090;28;20045;-63
2023/01/07 02:29:26;;;;;;;7.10;6.22;;;10.30;83.40;;;;;;4977704;28;20394;-62
2023/01/07 02:31:57;;;;;;;7.10;6.30;;;10.30;83.40;;;;;;4978268;28;20034;-63
2023/01/07 02:34:47;;;;;;;8.57;6.30;;;10.30;83.30;;;;;;4978146;28;20442;-62
2023/01/07 02:37:34;;;;;;;7.57;6.32;;;10.30;83.40;;;;;;4981678;28;20051;-62
2023/01/07 02:40:26;;;;;;;7.72;6.32;;;10.30;83.40;;;;;;4982654;28;20046;-64
2023/01/07 02:43:12;;;;;;;7.40;6.38;;;10.30;83.50;;;;;;4976099;28;20493;-62
2023/01/07 02:45:55;;;;;;;7.25;6.43;;;10.30;83.60;;;;;;4978192;28;20320;-63
2023/01/07 02:48:23;;;;;;;7.07;6.38;;;10.20;83.40;;;;;;4978751;28;20043;-63
2023/01/07 02:50:48;;;;;;;8.38;6.50;;;10.20;83.40;;;;;;4978347;28;20037;-63
2023/01/07 02:53:17;;;;;;;7.70;6.50;;;10.20;83.40;;;;;;4982994;28;20442;-63
2023/01/07 02:56:12;;;;;;;7.68;6.65;;;10.20;83.60;;;;;;4979233;28;20037;-63
2023/01/07 02:58:50;;;;;;;7.47;6.70;;;10.20;83.70;;;;;;4973036;28;20043;-61
2023/01/07 03:01:21;;;;;;;7.88;6.70;;;10.20;83.60;;;;;;4980338;28;20522;-59
2023/01/07 03:04:09;;;;;;;7.22;6.53;;;10.20;83.60;;;;;;4979356;28;20048;-62
2023/01/07 03:07:15;;;;;;;8.07;6.70;;;10.30;83.80;;;;;;4975658;28;20038;-60
2023/01/07 03:09:47;;;;;;;8.40;7.10;;;10.20;83.70;;;;;;4979430;28;20030;-62
2023/01/07 03:12:18;;;;;;;8.57;6.38;;;10.20;83.60;;;;;;4980735;28;20089;-63
2023/01/07 03:14:56;;;;;;;7.90;6.68;;;10.30;83.60;;;;;;4987722;28;20038;-60
2023/01/07 03:17:29;;;;;;;7.95;6.75;;;10.10;83.50;;;;;;4976791;28;20038;-62
2023/01/07 03:19:58;;;;;;;8.35;7.05;;;10.30;83.50;;;;;;4976222;28;20038;-63
2023/01/07 03:22:28;;;;;;;8.23;7.00;;;10.20;83.40;;;;;;4975792;28;20109;-61
2023/01/07 03:24:56;;;;;;;8.25;6.57;;;10.20;83.40;;;;;;4977774;28;20069;-62
2023/01/07 03:27:24;;;;;;;7.82;6.55;;;10.20;83.50;;;;;;4977477;28;20510;-62
2023/01/07 03:29:51;;;;;;;8.20;6.57;;;10.20;83.40;;;;;;4976251;28;20038;-62
2023/01/07 03:32:40;;;;;;;7.30;6.20;;;10.20;83.50;;;;;;4975981;28;20559;-62
2023/01/07 03:35:06;;;;;;;6.78;6.07;;;10.20;83.60;;;;;;4982061;28;20049;-60
2023/01/07 03:37:33;;;;;;;6.90;6.20;;;10.10;83.50;;;;;;4978762;28;20629;-62
2023/01/07 03:39:59;;;;;;;7.25;6.40;;;10.10;83.60;;;;;;4986056;28;20045;-61
2023/01/07 03:42:38;;;;;;;8.45;6.38;;;10.10;83.80;;;;;;4979355;28;20058;-62
2023/01/07 03:45:10;;;;;;;7.47;6.60;;;10.10;83.60;;;;;;4977997;28;20118;-62
2023/01/07 03:47:38;;;;;;;8.30;7.03;;;10.10;83.60;;;;;;4984498;28;20081;-63
2023/01/07 03:50:04;;;;;;;7.78;6.90;;;10.10;83.50;;;;;;4982240;28;20506;-62
2023/01/07 03:52:30;;;;;;;7.05;6.22;;;10.10;83.50;;;;;;4981957;28;20125;-60
2023/01/07 03:54:55;;;;;;;7.10;6.40;;;10.10;83.50;;;;;;4983144;28;20586;-62
2023/01/07 03:57:21;;;;;;;7.05;6.35;;;10.10;83.50;;;;;;4980531;28;20030;-62
2023/01/07 03:59:46;;;;;;;7.68;6.55;;;10.10;83.40;;;;;;4962871;28;20046;-62
2023/01/07 04:02:12;;;;;;;7.80;6.60;;;10.10;83.40;;;;;;4973133;28;20034;-63
2023/01/07 04:04:37;;;;;;;7.22;6.53;;;10.10;83.50;;;;;;4971535;28;20093;-62
2023/01/07 04:07:03;;;;;;;8.75;6.60;;;10.10;83.60;;;;;;4977081;28;20042;-62
2023/01/07 04:09:28;;;;;;;7.07;6.38;;;10.00;83.60;;;;;;4983516;28;20416;-62
2023/01/07 04:11:54;;;;;;;7.72;6.57;;;10.00;83.60;;;;;;4973460;28;20042;-63
2023/01/07 04:14:20;;;;;;;6.72;6.03;;;10.00;83.60;;;;;;4974961;28;20221;-61
2023/01/07 04:16:45;;;;;;;7.70;6.57;;;10.00;83.60;;;;;;4984259;28;20053;-59
2023/01/07 04:19:11;;;;;;;7.18;6.47;;;10.00;83.60;;;;;;4987705;28;20714;-63
2023/01/07 04:21:36;;;;;;;6.30;5.70;;;10.00;83.60;;;;;;4985319;28;20031;-63
2023/01/07 04:24:02;;;;;;;7.65;6.95;;;10.00;83.60;;;;;;4988065;28;20311;-62
2023/01/07 04:26:28;;;;;;;7.45;6.28;;;10.00;83.60;;;;;;4982945;28;20038;-62
2023/01/07 04:28:53;;;;;;;8.10;7.15;;;10.00;83.60;;;;;;4985313;28;20418;-63
2023/01/07 04:31:19;;;;;;;6.75;6.05;;;10.00;83.60;;;;;;4977745;28;20033;-63
2023/01/07 04:33:45;;;;;;;8.23;6.95;;;10.00;83.60;;;;;;4977136;28;20526;-61
2023/01/07 04:36:12;;;;;;;6.97;6.28;;;9.90;83.70;;;;;;4976020;28;20077;-61
2023/01/07 04:38:38;;;;;;;7.43;6.55;;;9.90;83.60;;;;;;4977313;28;20034;-61
2023/01/07 04:41:03;;;;;;;7.70;6.63;;;9.90;83.70;;;;;;4980176;28;20092;-61
2023/01/07 04:43:29;;;;;;;7.65;6.65;;;9.90;83.70;;;;;;4973191;28;20113;-62
2023/01/07 04:45:54;;;;;;;7.25;6.45;;;9.90;83.80;;;;;;4979351;28;20414;-59
2023/01/07 04:48:20;;;;;;;9.10;6.63;;;9.90;83.80;;;;;;4972803;28;20425;-62
2023/01/07 04:50:46;;;;;;;9.15;6.88;;;9.90;84.00;;;;;;4975331;28;20050;-62
2023/01/07 04:53:12;;;;;;;8.75;6.82;;;9.90;84.00;;;;;;4980710;28;20034;-62
2023/01/07 04:55:38;;;;;;;8.73;6.53;;;9.90;84.00;;;;;;4978607;28;20046;-61
2023/01/07 04:58:03;;;;;;;7.50;6.70;;;9.90;84.00;;;;;;4975892;28;20069;-60
2023/01/07 05:00:29;;;;;;;8.38;6.95;;;9.90;84.00;;;;;;4972825;28;20037;-62
2023/01/07 05:02:54;;;;;;;8.85;6.88;;;9.90;84.00;;;;;;4975687;28;20177;-62
2023/01/07 05:05:20;;;;;;;7.85;6.97;;;9.80;84.00;;;;;;4978137;28;20042;-60
2023/01/07 05:07:46;;;;;;;8.50;7.03;;;9.80;84.10;;;;;;4975715;28;20409;-61
2023/01/07 05:10:11;;;;;;;7.47;6.68;;;9.80;84.10;;;;;;4977190;28;20070;-61
2023/01/07 05:12:37;;;;;;;8.07;6.53;;;9.80;84.10;;;;;;4975833;28;20035;-59
2023/01/07 05:15:03;;;;;;;7.38;6.40;;;9.90;84.20;;;;;;4976067;28;20488;-62
2023/01/07 05:17:29;;;;;;;7.13;6.25;;;9.80;84.10;;;;;;4974188;28;20030;-62
2023/01/07 05:19:54;;;;;;;7.57;6.63;;;10.00;84.30;;;;;;4972242;28;20403;-62
2023/01/07 05:22:20;;;;;;;7.57;6.78;;;9.80;84.10;;;;;;4973462;28;20034;-61
2023/01/07 05:24:45;;;;;;;7.53;6.80;;;9.90;84.10;;;;;;4973181;28;20113;-61
2023/01/07 05:27:11;;;;;;;8.93;6.75;;;9.90;84.10;;;;;;4974559;28;20034;-61
2023/01/07 05:29:37;;;;;;;7.75;6.68;;;9.90;84.10;;;;;;4976283;28;20042;-61
2023/01/07 05:32:03;;;;;;;8.55;6.57;;;9.90;84.00;;;;;;4973534;28;20042;-59
2023/01/07 05:34:28;;;;;;;7.68;6.93;;;9.90;84.10;;;;;;4973410;28;20153;-59
2023/01/07 05:36:54;;;;;;;7.38;6.68;;;9.90;84.10;;;;;;4974292;28;20085;-60
2023/01/07 05:39:19;;;;;;;9.23;6.32;;;9.90;84.10;;;;;;4977425;28;20550;-60
2023/01/07 05:41:45;;;;;;;8.07;7.10;;;9.90;84.00;;;;;;4980981;28;20038;-59
2023/01/07 05:44:10;;;;;;;7.93;6.93;;;9.90;84.00;;;;;;4978964;28;20042;-59
2023/01/07 05:46:36;;;;;;;8.32;7.00;;;9.90;83.90;;;;;;4977944;28;20037;-59
2023/01/07 05:49:02;;;;;;;9.43;6.93;;;9.90;83.90;;;;;;4979638;28;20066;-60
2023/01/07 05:51:27;;;;;;;7.50;6.50;;;9.90;84.00;;;;;;4979557;28;20027;-59
2023/01/07 05:53:54;;;;;;;7.30;6.45;;;9.90;84.00;;;;;;4977073;28;20031;-61
2023/01/07 05:56:20;;;;;;;7.55;6.63;;;9.90;83.90;;;;;;4980163;28;20401;-60
2023/01/07 05:58:45;;;;;;;7.45;6.53;;;10.00;83.90;;;;;;4978829;28;20026;-60
2023/01/07 06:01:11;;;;;;;7.88;7.07;;;10.00;83.80;;;;;;4980514;28;20042;-60
2023/01/07 06:03:37;;;;;;;7.25;6.55;;;9.90;83.80;;;;;;4980069;28;20113;-60
2023/01/07 06:06:06;;;;;;;7.20;6.50;;;10.00;83.90;;;;;;4978940;28;20237;-62
2023/01/07 06:08:35;;;;;;;9.07;7.43;;;9.90;83.90;;;;;;4980451;28;20101;-59
2023/01/07 06:11:01;;;;;;;8.43;7.50;;;9.90;83.80;;;;;;4977038;28;20053;-61
2023/01/07 06:13:27;;;;;;;9.27;7.95;;;9.90;83.70;;;;;;4977173;28;20047;-59
2023/01/07 06:15:58;;;;;;;9.88;8.18;;;9.90;83.60;;;;;;4983308;28;20049;-61
2023/01/07 06:18:23;;;;;;;11.98;8.70;;;9.90;83.70;;;;;;4986278;28;20042;-61
2023/01/07 06:20:49;;;;;;;11.32;8.50;;;9.90;83.80;;;;;;4985262;28;20039;-63
2023/01/07 06:23:15;;;;;;;13.43;9.60;;;9.80;83.90;;;;;;4985372;28;20049;-63
2023/01/07 06:25:40;;;;;;;16.90;10.60;;;9.80;84.00;;;;;;4986688;28;20507;-62
2023/01/07 06:28:06;;;;;;;18.23;10.75;;;9.80;84.20;;;;;;4985498;28;20040;-62
2023/01/07 06:30:32;;;;;;;21.58;12.88;;;9.80;84.30;;;;;;4980846;28;22003;-62
2023/01/07 06:32:57;;;;;;;27.98;15.02;;;9.80;85.10;;;;;;4977895;28;20041;-63
2023/01/07 06:35:23;;;;;;;17.98;11.52;;;9.80;84.30;;;;;;4975837;28;20080;-61
2023/01/07 06:37:48;;;;;;;14.95;9.65;;;9.80;84.40;;;;;;4976696;28;20034;-61
2023/01/07 06:40:14;;;;;;;10.43;7.85;;;9.80;84.40;;;;;;4978200;28;20531;-61
2023/01/07 06:42:40;;;;;;;9.40;7.45;;;9.80;84.30;;;;;;4980625;28;20042;-62
2023/01/07 06:45:05;;;;;;;7.47;6.15;;;9.80;84.30;;;;;;4981576;28;20503;-61
2023/01/07 06:47:31;;;;;;;8.88;6.15;;;9.80;84.10;;;;;;4974184;28;20045;-62
2023/01/07 06:49:57;;;;;;;6.47;5.82;;;9.90;83.90;;;;;;4977082;28;20117;-62
2023/01/07 06:52:22;;;;;;;6.03;5.43;;;9.80;83.70;;;;;;4975876;28;20050;-59
2023/01/07 06:54:48;;;;;;;5.60;5.03;;;9.80;83.50;;;;;;4974545;28;20170;-59
2023/01/07 06:57:13;;;;;;;4.85;4.45;;;9.80;83.40;;;;;;4976024;28;20501;-60
2023/01/07 06:59:39;;;;;;;5.13;4.68;;;9.80;83.30;;;;;;4977162;28;20461;-59
2023/01/07 07:02:04;;;;;;;5.80;5.20;;;9.70;83.10;;;;;;4981370;28;20034;-58
2023/01/07 07:04:30;;;;;;;5.65;4.85;;;9.70;83.00;;;;;;4976457;28;20027;-61
2023/01/07 07:06:56;;;;;;;6.30;5.22;;;9.70;83.00;;;;;;4981751;28;20038;-60
2023/01/07 07:09:21;;;;;;;5.65;5.00;;;9.70;83.00;;;;;;4983129;28;20034;-60
2023/01/07 07:11:47;;;;;;;5.25;4.75;;;9.70;83.00;;;;;;4984707;28;20038;-59
2023/01/07 07:14:12;;;;;;;4.95;4.47;;;9.60;82.70;;;;;;4986703;28;20041;-60
2023/01/07 07:16:38;;;;;;;6.10;5.05;;;9.60;82.40;;;;;;4988156;28;20533;-59
2023/01/07 07:19:03;;;;;;;6.40;4.85;;;9.60;82.20;;;;;;4986168;28;20065;-61
2023/01/07 07:21:29;;;;;;;7.07;5.30;;;9.60;82.10;;;;;;4987484;28;20042;-60
2023/01/07 07:23:54;;;;;;;7.43;5.57;;;9.60;82.00;;;;;;4987950;28;20069;-59
2023/01/07 07:26:20;;;;;;;5.13;4.63;;;9.50;82.00;;;;;;4987772;28;20045;-59
2023/01/07 07:28:45;;;;;;;5.13;4.63;;;9.50;81.80;;;;;;4983231;28;20027;-61
2023/01/07 07:31:11;;;;;;;5.10;4.60;;;9.50;81.80;;;;;;4986043;28;20509;-59
2023/01/07 07:33:37;;;;;;;4.88;4.38;;;9.50;81.90;;;;;;4986857;28;20474;-60
2023/01/07 07:36:03;;;;;;;4.40;4.00;;;9.50;82.00;;;;;;4986145;28;20068;-60
2023/01/07 07:38:28;;;;;;;4.47;4.07;;;9.40;82.00;;;;;;4981753;28;20165;-61
2023/01/07 07:40:55;;;;;;;4.22;3.85;;;9.40;81.90;;;;;;4983367;28;20129;-59
2023/01/07 07:43:21;;;;;;;5.13;3.63;;;9.40;81.80;;;;;;4982129;28;20442;-62
2023/01/07 07:45:46;;;;;;;4.25;3.70;;;9.40;81.70;;;;;;4984433;28;20042;-61
2023/01/07 07:48:14;;;;;;;4.10;3.70;;;9.40;81.70;;;;;;4983353;28;20035;-61
2023/01/07 07:50:39;;;;;;;7.25;5.22;;;9.40;81.90;;;;;;4983891;28;20125;-61
2023/01/07 07:53:08;;;;;;;5.25;4.75;;;9.40;81.80;;;;;;4983393;28;20432;-62
2023/01/07 07:55:36;;;;;;;4.30;3.90;;;9.40;81.70;;;;;;4986777;28;20100;-61
2023/01/07 07:58:02;;;;;;;4.78;4.28;;;9.40;81.60;;;;;;4982643;28;20041;-61
2023/01/07 08:00:27;;;;;;;5.00;4.60;;;9.40;81.70;;;;;;4981153;28;20042;-60
2023/01/07 08:02:57;;;;;;;6.90;5.00;;;9.40;81.60;;;;;;4970686;28;20062;-61
2023/01/07 08:05:22;;;;;;;5.00;4.30;;;9.30;81.30;;;;;;4969830;28;20105;-60
2023/01/07 08:07:48;;;;;;;5.65;4.38;;;9.30;81.30;;;;;;4959774;28;20030;-61
2023/01/07 08:10:13;;;;;;;4.78;4.28;;;9.30;81.30;;;;;;4967427;28;20165;-62
2023/01/07 08:12:39;;;;;;;5.25;4.75;;;9.30;81.00;;;;;;4972108;28;20073;-60
2023/01/07 08:15:06;;;;;;;5.78;5.18;;;9.30;80.90;;;;;;4977412;28;20120;-59
2023/01/07 08:17:32;;;;;;;5.95;5.10;;;9.30;80.80;;;;;;4981226;28;20030;-62
2023/01/07 08:19:58;;;;;;;5.65;5.10;;;9.20;80.70;;;;;;4976713;28;20407;-62
2023/01/07 08:22:23;;;;;;;7.65;5.60;;;9.20;80.70;;;;;;4979275;28;20060;-62
2023/01/07 08:24:49;;;;;;;5.63;4.97;;;9.10;80.70;;;;;;4980509;28;20545;-64
2023/01/07 08:27:15;;;;;;;5.05;4.55;;;9.10;80.70;;;;;;4973778;28;20502;-61
2023/01/07 08:29:40;;;;;;;5.00;4.50;;;9.10;80.80;;;;;;4974889;28;20111;-60
2023/01/07 08:32:06;;;;;;;4.60;4.20;;;9.10;80.80;;;;;;4974779;28;20401;-63
2023/01/07 08:34:32;;;;;;;4.05;3.67;;;9.00;80.80;;;;;;4971085;28;20486;-63
2023/01/07 08:36:57;;;;;;;4.50;4.10;;;9.00;80.80;;;;;;4973784;28;20037;-62
2023/01/07 08:39:23;;;;;;;4.05;3.53;;;9.00;80.80;;;;;;4980911;28;20022;-62
2023/01/07 08:41:48;;;;;;;4.88;4.13;;;9.00;81.00;;;;;;4978504;28;20052;-61
2023/01/07 08:44:14;;;;;;;5.35;4.28;;;9.00;81.20;;;;;;4977990;28;20109;-62
2023/01/07 08:46:40;;;;;;;4.53;4.13;;;9.00;81.30;;;;;;4976749;28;20030;-62
2023/01/07 08:49:06;;;;;;;5.10;4.60;;;9.00;81.20;;;;;;4980484;28;20314;-62
2023/01/07 08:51:31;;;;;;;5.50;5.00;;;9.00;81.30;;;;;;4978626;28;20027;-61
2023/01/07 08:53:57;;;;;;;5.53;4.63;;;9.00;81.30;;;;;;4979353;28;20520;-61
2023/01/07 08:56:22;;;;;;;5.40;4.90;;;9.10;81.30;;;;;;4979075;28;20398;-58
2023/01/07 08:58:48;;;;;;;5.53;5.03;;;9.10;81.10;;;;;;4983893;28;20030;-62
2023/01/07 09:01:14;;;;;;;5.32;4.82;;;9.10;81.80;;;;;;4979035;28;20597;-62
2023/01/07 09:03:39;;;;;;;5.65;4.88;;;9.10;80.90;;;;;;4980339;28;20458;-62
2023/01/07 09:06:05;;;;;;;6.38;4.93;;;9.10;80.80;;;;;;4975591;28;20446;-61
2023/01/07 09:08:30;;;;;;;4.82;4.32;;;9.20;80.80;;;;;;4981571;28;20274;-62
2023/01/07 09:10:56;;;;;;;4.50;4.10;;;9.20;80.60;;;;;;4977686;28;20042;-61
2023/01/07 09:13:22;;;;;;;4.80;3.63;;;9.20;80.40;;;;;;4977758;28;20521;-60
2023/01/07 09:15:47;;;;;;;4.85;4.18;;;9.20;80.30;;;;;;4980726;28;20502;-59
2023/01/07 09:18:13;;;;;;;4.20;3.78;;;9.20;80.30;;;;;;4980089;28;20041;-62
2023/01/07 09:20:39;;;;;;;4.43;4.03;;;9.20;80.30;;;;;;4977680;28;20528;-60
2023/01/07 09:23:04;;;;;;;4.57;4.15;;;9.20;80.30;;;;;;4969481;28;20483;-60
2023/01/07 09:25:30;;;;;;;4.10;3.70;;;9.30;80.30;;;;;;4976559;28;20037;-61
2023/01/07 09:27:55;;;;;;;4.45;4.05;;;9.30;80.40;;;;;;4974081;28;20500;-62
2023/01/07 09:30:21;;;;;;;3.95;3.60;;;9.30;80.30;;;;;;4976698;28;20057;-61
2023/01/07 09:32:47;;;;;;;4.00;3.70;;;9.30;80.30;;;;;;4975036;28;20034;-61
2023/01/07 09:35:14;;;;;;;4.93;3.67;;;9.40;80.10;;;;;;4978633;28;20030;-60
2023/01/07 09:37:39;;;;;;;4.10;3.70;;;9.40;80.00;;;;;;4983066;28;20469;-59
2023/01/07 09:40:07;;;;;;;3.97;3.67;;;9.40;80.00;;;;;;4978938;28;20039;-60
2023/01/07 09:43:02;;;;;;;4.47;3.92;;;9.40;79.80;;;;;;4980345;28;20085;-60
2023/01/07 09:45:35;;;;;;;5.43;4.40;;;9.50;79.50;;;;;;4984447;28;20031;-61
2023/01/07 09:48:05;;;;;;;5.82;4.50;;;9.50;79.70;;;;;;4980838;28;20045;-62
2023/01/07 09:50:39;;;;;;;4.38;3.97;;;9.50;80.50;;;;;;4977657;28;20038;-63
2023/01/07 09:53:12;;;;;;;4.45;3.85;;;9.60;79.30;;;;;;4985883;28;20048;-58
2023/01/07 09:55:40;;;;;;;3.88;3.58;;;9.60;80.40;;;;;;4977703;28;20142;-61
2023/01/07 09:58:12;;;;;;;3.95;3.65;;;9.60;79.40;;;;;;4986276;28;20084;-60
2023/01/07 10:01:05;;;;;;;4.05;3.60;;;9.60;78.90;;;;;;4986309;28;20093;-61
2023/01/07 10:03:45;;;;;;;3.88;3.58;;;9.70;79.70;;;;;;4985500;28;20058;-60
2023/01/07 10:06:34;;;;;;;3.85;3.50;;;9.70;79.00;;;;;;4985493;28;20030;-61
2023/01/07 10:09:28;;;;;;;3.85;3.50;;;9.70;78.80;;;;;;4972337;28;20410;-61
2023/01/07 10:12:10;;;;;;;3.85;3.45;;;9.70;77.70;;;;;;4982969;28;20030;-62
2023/01/07 10:14:47;;;;;;;3.53;3.22;;;9.80;78.40;;;;;;4987381;28;20037;-63
2023/01/07 10:17:34;;;;;;;3.88;3.58;;;9.80;78.70;;;;;;4984479;28;20039;-63
2023/01/07 10:20:09;;;;;;;4.20;3.38;;;9.80;78.40;;;;;;4988787;28;20046;-63
2023/01/07 10:22:41;;;;;;;3.10;2.88;;;9.80;78.60;;;;;;4987131;28;20030;-63
2023/01/07 10:25:17;;;;;;;3.97;3.50;;;9.90;78.60;;;;;;4985993;28;20039;-61
2023/01/07 10:27:45;;;;;;;3.70;3.40;;;9.90;78.40;;;;;;4986177;28;20064;-62
2023/01/07 10:30:21;;;;;;;3.70;3.40;;;10.00;78.50;;;;;;4986181;28;20053;-62
2023/01/07 10:32:51;;;;;;;5.10;3.63;;;10.00;78.30;;;;;;4987470;28;20387;-62
2023/01/07 10:35:20;;;;;;;4.20;3.80;;;10.00;78.10;;;;;;4986253;28;20042;-62
2023/01/07 10:37:45;;;;;;;4.03;3.70;;;10.10;77.90;;;;;;4986412;28;20485;-62
2023/01/07 10:40:11;;;;;;;4.38;3.97;;;10.10;77.70;;;;;;4985214;28;20536;-62
2023/01/07 10:42:45;;;;;;;5.15;4.30;;;10.10;77.60;;;;;;4985120;28;20125;-61
2023/01/07 10:45:24;;;;;;;4.80;4.32;;;10.10;77.20;;;;;;4987475;28;20523;-61
2023/01/07 10:48:21;;;;;;;4.75;4.28;;;10.10;77.20;;;;;;4985887;28;20406;-60
2023/01/07 10:51:10;;;;;;;4.05;3.75;;;10.10;76.80;;;;;;4984094;28;20042;-62
2023/01/07 10:54:03;;;;;;;5.45;4.68;;;10.20;76.60;;;;;;4985030;28;20421;-62
2023/01/07 10:56:40;;;;;;;4.43;4.03;;;10.20;76.30;;;;;;4985612;28;20034;-62
2023/01/07 10:59:12;;;;;;;4.97;4.47;;;10.20;76.60;;;;;;4981820;28;20034;-62
2023/01/07 11:01:43;;;;;;;5.00;4.50;;;10.10;76.50;;;;;;4988371;28;20674;-62
2023/01/07 11:04:13;;;;;;;5.07;4.57;;;10.10;76.80;;;;;;4987842;28;20756;-62
2023/01/07 11:07:03;;;;;;;5.63;4.75;;;10.10;76.70;;;;;;4988416;28;20026;-60
2023/01/07 11:09:32;;;;;;;8.23;5.20;;;10.10;76.10;;;;;;4990057;28;20125;-62
2023/01/07 11:12:16;;;;;;;8.13;5.13;;;10.10;77.00;;;;;;4984537;28;20051;-61
2023/01/07 11:14:42;;;;;;;4.65;4.25;;;10.10;76.60;;;;;;4988241;28;20032;-62
2023/01/07 11:17:22;;;;;;;6.72;4.88;;;10.10;76.80;;;;;;4988089;28;20092;-61
2023/01/07 11:19:50;;;;;;;5.60;4.90;;;10.20;76.70;;;;;;4988075;28;20129;-61
2023/01/07 11:22:24;;;;;;;5.95;4.57;;;10.20;76.80;;;;;;4989283;28;20050;-60
2023/01/07 11:24:50;;;;;;;4.65;4.20;;;10.20;76.10;;;;;;4988169;28;20049;-61
2023/01/07 11:27:17;;;;;;;5.03;4.53;;;10.20;76.80;;;;;;4988988;28;20030;-63
2023/01/07 11:30:03;;;;;;;5.07;4.57;;;10.20;76.80;;;;;;4989091;28;20081;-62
2023/01/07 11:32:31;;;;;;;6.57;5.35;;;10.20;76.50;;;;;;4987535;28;20031;-62
2023/01/07 11:35:03;;;;;;;7.32;5.80;;;10.30;76.70;;;;;;4987980;28;20042;-62
2023/01/07 11:37:33;;;;;;;6.43;5.72;;;10.30;76.60;;;;;;4987916;28;20027;-59
2023/01/07 11:40:00;;;;;;;6.60;5.65;;;10.30;76.50;;;;;;4985928;28;20043;-61
2023/01/07 11:42:38;;;;;;;6.07;5.50;;;10.20;76.60;;;;;;4985790;28;20031;-60
2023/01/07 11:45:47;;;;;;;6.28;5.20;;;10.30;76.70;;;;;;4985939;28;20756;-60
2023/01/07 11:48:29;;;;;;;6.22;5.63;;;10.30;76.40;;;;;;4968364;28;20042;-62
2023/01/07 11:51:01;;;;;;;5.72;5.13;;;10.30;76.20;;;;;;4983733;28;20035;-61
2023/01/07 11:53:42;;;;;;;6.10;5.50;;;10.20;76.00;;;;;;4982459;28;20042;-61
2023/01/07 11:56:20;;;;;;;6.18;5.57;;;10.30;76.50;;;;;;4984531;28;20124;-59
2023/01/07 11:58:51;;;;;;;6.25;5.68;;;10.20;75.10;;;;;;4985399;28;20034;-61
2023/01/07 12:01:24;;;;;;;6.18;5.57;;;10.20;75.50;;;;;;4983745;28;20073;-61
2023/01/07 12:03:53;;;;;;;5.95;5.30;;;10.20;75.80;;;;;;4981386;28;20045;-61
2023/01/07 12:06:23;;;;;;;6.90;5.35;;;10.20;75.60;;;;;;4983740;28;20082;-60
2023/01/07 12:09:02;;;;;;;5.60;5.00;;;10.20;75.60;;;;;;4985876;28;20391;-63
2023/01/07 12:11:35;;;;;;;4.95;4.53;;;10.10;75.20;;;;;;4979088;28;20546;-63
2023/01/07 12:14:17;;;;;;;5.32;4.82;;;10.10;75.50;;;;;;4985411;28;20117;-62
2023/01/07 12:16:44;;;;;;;5.60;5.03;;;10.10;75.80;;;;;;4980574;28;20038;-63
2023/01/07 12:19:36;;;;;;;4.95;4.50;;;10.10;76.00;;;;;;4984269;28;20121;-63
2023/01/07 12:22:29;;;;;;;5.45;4.93;;;10.10;75.30;;;;;;4946081;28;20053;-62
2023/01/07 12:25:18;;;;;;;5.55;4.93;;;10.10;75.40;;;;;;4982836;28;20034;-62
2023/01/07 12:28:23;;;;;;;5.10;4.60;;;10.10;75.70;;;;;;4984089;28;20031;-61
2023/01/07 12:31:03;;;;;;;4.80;4.37;;;10.20;75.70;;;;;;4982907;28;20046;-61
2023/01/07 12:33:35;;;;;;;4.95;4.45;;;10.20;75.80;;;;;;4987931;28;20269;-62
2023/01/07 12:36:08;;;;;;;5.13;4.63;;;10.20;76.00;;;;;;4984039;28;20038;-63
2023/01/07 12:38:46;;;;;;;4.60;4.18;;;10.20;75.80;;;;;;4984078;28;20235;-63
2023/01/07 12:41:43;;;;;;;6.55;5.85;;;10.30;75.80;;;;;;4983411;28;20042;-62
2023/01/07 12:44:18;;;;;;;5.20;4.70;;;10.30;75.10;;;;;;4969995;28;20034;-62
2023/01/07 12:47:06;;;;;;;7.35;5.80;;;10.30;76.30;;;;;;4983594;28;20077;-62
2023/01/07 12:49:43;;;;;;;5.53;4.80;;;10.30;75.30;;;;;;4985061;28;20031;-60
2023/01/07 12:52:18;;;;;;;5.25;4.75;;;10.30;75.60;;;;;;4985434;28;20042;-61
2023/01/07 12:54:46;;;;;;;4.88;4.38;;;10.30;75.60;;;;;;4982578;28;20038;-61
2023/01/07 12:57:16;;;;;;;6.72;5.13;;;10.30;75.90;;;;;;4983928;28;20076;-61
2023/01/07 12:59:57;;;;;;;4.90;4.40;;;10.30;76.00;;;;;;4978855;28;20053;-62
2023/01/07 13:02:32;;;;;;;6.32;5.05;;;10.40;75.80;;;;;;4984843;28;20066;-58
2023/01/07 13:05:13;;;;;;;5.80;5.20;;;10.40;75.40;;;;;;4982991;28;20091;-60
2023/01/07 13:07:41;;;;;;;5.32;4.80;;;10.40;75.40;;;;;;4983318;28;20494;-64